tititudorancea.com
Station Historical Data
Daily Summary for April 3, 2018 Units:  Metric    English   Both
« Previous Day
Next Day »
Daily Weekly Monthly Yearly Custom
  High: Low: Average:
Temperature: -17.8 °C 9.7 °C 14.9 °C
Dew Point: -17.8 °C 7.9 °C 9.4 °C
Humidity: Humidity % 45 % 72 %
Wind Speed: 0 km/h 0 km/h 8.2 km/h
Wind Gust: 0 km/h - -
Wind:- - SSW
Pressure: 0 hPa 1019.5 hPa -
Precipitation: 0 mm    
Historical Graphs
 
 
Ararat weather Find more about Weather in Ararat, AU


 



 


Tabular Data for April 3, 2018
Time Temperature Dew Point Pressure Wind Wind Speed Wind Gust Humidity Rainfall Rate (Hourly)
-17.8 °C -17.8 °C 0 hPa Calm     Humidity % 0 mm
00:03 11.8 °C 10.2 °C 1021.6 hPa Calm     90 % 0 mm
00:08 11.8 °C 10.2 °C 1021.9 hPa Calm     90 % 0 mm
00:13 11.7 °C 10.1 °C 1021.9 hPa Calm     90 % 0 mm
00:18 11.7 °C 10.1 °C 1021.9 hPa Calm     90 % 0 mm
00:22 11.7 °C 10.1 °C 1021.9 hPa Calm     90 % 0 mm
00:27 11.7 °C 10.2 °C 1021.9 hPa Calm     91 % 0 mm
00:32 11.7 °C 10.2 °C 1021.6 hPa Calm     91 % 0 mm
00:37 11.7 °C 10.2 °C 1021.6 hPa Calm     91 % 0 mm
00:42 11.7 °C 10.2 °C 1021.6 hPa Calm     91 % 0 mm
00:48 11.7 °C 10.2 °C 1021.6 hPa Calm     91 % 0 mm
00:53 11.7 °C 10.2 °C 1021.6 hPa Calm     91 % 0 mm
00:58 11.7 °C 10.2 °C 1021.6 hPa Calm     91 % 0 mm
01:03 11.7 °C 10.2 °C 1021.6 hPa Calm     91 % 0 mm
01:08 11.7 °C 10.3 °C 1021.6 hPa Calm     91 % 0 mm
01:13 11.8 °C 10.3 °C 1021.6 hPa Calm     91 % 0 mm
01:18 11.8 °C 10.6 °C 1021.6 hPa Calm     92 % 0 mm
01:23 11.9 °C 10.6 °C 1021.6 hPa Calm     92 % 0 mm
01:28 11.9 °C 10.7 °C 1021.6 hPa Calm     92 % 0 mm
01:33 11.9 °C 10.5 °C 1021.6 hPa Calm     91 % 0 mm
01:38 11.9 °C 10.5 °C 1021.6 hPa Calm     91 % 0 mm
01:43 11.9 °C 10.7 °C 1021.6 hPa Calm     92 % 0 mm
01:48 12 °C 10.7 °C 1021.6 hPa Calm     92 % 0 mm
01:53 12.1 °C 10.8 °C 1021.6 hPa SSW 0.3 km/h 1.9 km/h 92 % 0 mm
01:58 12.1 °C 10.8 °C 1021.6 hPa North 2.1 km/h 5.6 km/h 92 % 0 mm
02:03 12.2 °C 10.9 °C 1021.6 hPa SSW 3.7 km/h 5.6 km/h 92 % 0 mm
02:08 12.3 °C 11 °C 1021.2 hPa SSW 1.8 km/h 5.6 km/h 92 % 0 mm
02:13 12.4 °C 10.9 °C 1021.2 hPa SSW 5.6 km/h 9.3 km/h 91 % 0 mm
02:18 12.4 °C 10.9 °C 1021.2 hPa South 3.9 km/h 5.6 km/h 91 % 0 mm
02:23 12.4 °C 11 °C 1021.2 hPa North 4.3 km/h 5.6 km/h 91 % 0 mm
02:28 12.4 °C 11 °C 1021.2 hPa SSW 4.8 km/h 6.4 km/h 91 % 0 mm
02:33 12.4 °C 11 °C 1021.2 hPa SSW 7.6 km/h 11.1 km/h 91 % 0 mm
02:38 12.4 °C 10.8 °C 1021.2 hPa SSW 2.1 km/h 5.6 km/h 90 % 0 mm
02:43 12.4 °C 10.8 °C 1021.2 hPa SSW 2.7 km/h 6.4 km/h 90 % 0 mm
02:48 12.4 °C 10.8 °C 1021.2 hPa North 5 km/h 9.3 km/h 90 % 0 mm
02:53 12.5 °C 10.9 °C 1021.2 hPa SSW 4.3 km/h 6.4 km/h 90 % 0 mm
02:58 12.5 °C 10.9 °C 1020.9 hPa SSW 1.4 km/h 3.7 km/h 90 % 0 mm
03:03 12.4 °C 10.8 °C 1021.2 hPa North 2.3 km/h 3.7 km/h 90 % 0 mm
03:08 12.4 °C 10.8 °C 1021.2 hPa SSW 4.3 km/h 6.4 km/h 90 % 0 mm
03:13 12.4 °C 10.8 °C 1021.2 hPa SSW 5.1 km/h 6.4 km/h 90 % 0 mm
03:18 12.3 °C 10.7 °C 1021.2 hPa SSW 2.1 km/h 5.6 km/h 90 % 0 mm
03:23 12.3 °C 10.7 °C 1020.9 hPa SSW 2.4 km/h 6.4 km/h 90 % 0 mm
03:28 12.3 °C 10.7 °C 1021.2 hPa SSW 2.6 km/h 5.6 km/h 90 % 0 mm
03:33 12.3 °C 10.7 °C 1021.2 hPa Calm     90 % 0 mm
03:38 12.2 °C 10.6 °C 1021.2 hPa Calm     90 % 0 mm
03:43 12.2 °C 10.6 °C 1021.2 hPa North 1.4 km/h 5.6 km/h 90 % 0 mm
03:48 12.2 °C 10.6 °C 1021.2 hPa SSW 3.5 km/h 5.6 km/h 90 % 0 mm
03:53 12.2 °C 10.6 °C 1020.9 hPa North 2.1 km/h 5.6 km/h 90 % 0 mm
03:58 12.3 °C 10.7 °C 1020.9 hPa SSW 8.4 km/h 11.1 km/h 90 % 0 mm
04:03 12.3 °C 10.6 °C 1021.2 hPa SSW 4.5 km/h 9.3 km/h 89 % 0 mm
04:08 12.4 °C 10.7 °C 1021.2 hPa SSW 6.3 km/h 9.3 km/h 89 % 0 mm
04:13 12.6 °C 10.6 °C 1021.2 hPa SSW 2.7 km/h 5.6 km/h 88 % 0 mm
04:18 12.6 °C 10.7 °C 1021.2 hPa North 6.1 km/h 9.3 km/h 88 % 0 mm
04:23 12.6 °C 10.7 °C 1021.2 hPa SSW 6.1 km/h 9.7 km/h 88 % 0 mm
04:28 12.6 °C 10.7 °C 1021.2 hPa SSW 8.9 km/h 14.8 km/h 88 % 0 mm
04:33 12.6 °C 10.8 °C 1021.6 hPa North 10.1 km/h 11.1 km/h 89 % 0 mm
04:38 12.6 °C 10.8 °C 1021.6 hPa South 7.4 km/h 13 km/h 89 % 0 mm
04:43 12.5 °C 10.7 °C 1021.6 hPa South 7.1 km/h 9.3 km/h 89 % 0 mm
04:48 12.4 °C 10.7 °C 1021.6 hPa South 9.2 km/h 11.1 km/h 89 % 0 mm
04:53 12.4 °C 10.7 °C 1021.2 hPa North 6.6 km/h 9.3 km/h 89 % 0 mm
04:58 12.4 °C 10.7 °C 1021.2 hPa South 5.5 km/h 7.4 km/h 89 % 0 mm
05:03 12.4 °C 10.7 °C 1021.2 hPa South 4 km/h 7.4 km/h 89 % 0 mm
05:08 12.4 °C 10.7 °C 1021.2 hPa South 3.2 km/h 5.6 km/h 89 % 0 mm
05:13 12.4 °C 10.7 °C 1021.2 hPa South 1.8 km/h 3.7 km/h 89 % 0 mm
05:18 12.4 °C 10.7 °C 1021.6 hPa North 5.1 km/h 7.4 km/h 89 % 0 mm
05:23 12.4 °C 10.8 °C 1021.6 hPa South 3.7 km/h 5.6 km/h 90 % 0 mm
05:28 12.3 °C 10.7 °C 1021.6 hPa South 3.9 km/h 5.6 km/h 90 % 0 mm
05:33 12.3 °C 10.7 °C 1021.6 hPa North 3.7 km/h 7.4 km/h 90 % 0 mm
05:38 12.2 °C 10.4 °C 1021.6 hPa South 2.7 km/h 7.4 km/h 89 % 0 mm
05:43 12.3 °C 10.5 °C 1021.6 hPa South 6 km/h 9.3 km/h 89 % 0 mm
05:48 12.3 °C 10.4 °C 1021.6 hPa South 3.7 km/h 5.6 km/h 88 % 0 mm
05:53 12.3 °C 10.4 °C 1021.6 hPa South 4.2 km/h 5.6 km/h 88 % 0 mm
05:58 12.4 °C 10.4 °C 1021.6 hPa South 3.9 km/h 7.4 km/h 88 % 0 mm
06:03 12.4 °C 10.3 °C 1021.9 hPa South 4.5 km/h 5.6 km/h 87 % 0 mm
06:08 12.4 °C 10.3 °C 1021.9 hPa South 4 km/h 5.6 km/h 87 % 0 mm
06:13 12.5 °C 10.2 °C 1021.9 hPa South 5 km/h 5.6 km/h 86 % 0 mm
06:18 12.5 °C 10.1 °C 1021.9 hPa South 8.7 km/h 13 km/h 85 % 0 mm
06:23 12.6 °C 9.9 °C 1021.9 hPa South 5.3 km/h 9.7 km/h 84 % 0 mm
06:28 12.6 °C 9.8 °C 1021.9 hPa SSW 13.2 km/h 18.5 km/h 83 % 0 mm
06:33 12.7 °C 9.7 °C 1021.9 hPa South 12.7 km/h 20.4 km/h 82 % 0 mm
06:38 12.7 °C 9.7 °C 1021.9 hPa SSW 7.9 km/h 13 km/h 82 % 0 mm
06:43 12.8 °C 9.8 °C 1021.9 hPa SSW 6.8 km/h 9.7 km/h 82 % 0 mm
06:48 12.8 °C 9.6 °C 1021.9 hPa SSW 13 km/h 18.5 km/h 81 % 0 mm
06:53 12.8 °C 9.7 °C 1021.9 hPa North 11.3 km/h 14.8 km/h 81 % 0 mm
06:58 12.9 °C 9.7 °C 1021.9 hPa SSW 8.4 km/h 18.5 km/h 81 % 0 mm
07:03 12.9 °C 9.7 °C 1022.2 hPa SSW 7.4 km/h 11.1 km/h 81 % 0 mm
07:08 12.8 °C 9.7 °C 1022.2 hPa SSW 7.7 km/h 13 km/h 81 % 0 mm
07:13 12.8 °C 9.7 °C 1022.2 hPa South 8.2 km/h 11.1 km/h 81 % 0 mm
07:18 12.8 °C 9.3 °C 1022.2 hPa South 10.1 km/h 13 km/h 79 % 0 mm
07:23 12.9 °C 9.4 °C 1022.2 hPa South 10.6 km/h 14.8 km/h 79 % 0 mm
07:28 13 °C 9.4 °C 1022.2 hPa South 11.3 km/h 14.8 km/h 79 % 0 mm
07:33 13.1 °C 9.3 °C 1022.2 hPa South 9.7 km/h 11.1 km/h 78 % 0 mm
07:38 13.2 °C 9.4 °C 1022.6 hPa South 10.3 km/h 11.3 km/h 78 % 0 mm
07:43 13.2 °C 9.4 °C 1022.6 hPa SSW 7.2 km/h 9.3 km/h 78 % 0 mm
07:48 13.3 °C 9.5 °C 1022.6 hPa SSW 6.3 km/h 13 km/h 78 % 0 mm
07:53 13.4 °C 9.4 °C 1022.6 hPa SSW 13.5 km/h 22.2 km/h 77 % 0 mm
07:58 13.5 °C 9.6 °C 1022.6 hPa South 13.2 km/h 20.4 km/h 77 % 0 mm
08:03 13.6 °C 9.4 °C 1022.6 hPa SSW 11.1 km/h 18.5 km/h 76 % 0 mm
08:08 13.7 °C 9.6 °C 1022.6 hPa SSW 18.3 km/h 22.2 km/h 76 % 0 mm
08:13 13.7 °C 9.6 °C 1022.6 hPa South 16.3 km/h 24.1 km/h 76 % 0 mm
08:18 13.8 °C 9.7 °C 1022.6 hPa North 11.9 km/h 18.5 km/h 76 % 0 mm
08:23 13.9 °C 9.7 °C 1022.6 hPa SSW 20.3 km/h 24.1 km/h 76 % 0 mm
08:28 13.8 °C 10 °C 1022.6 hPa SSW 8.4 km/h 13 km/h 78 % 0 mm
08:33 13.8 °C 10 °C 1022.6 hPa South 11.1 km/h 18.5 km/h 78 % 0 mm
08:38 13.8 °C 10.1 °C 1022.6 hPa South 8.4 km/h 18.5 km/h 78 % 0 mm
08:43 13.9 °C 10 °C 1022.6 hPa South 24.1 km/h 24.1 km/h 77 % 0 mm
08:48 14.1 °C 10.1 °C 1022.6 hPa South 8 km/h 17.7 km/h 77 % 0 mm
08:53 14.1 °C 9.9 °C 1022.6 hPa SSW 16.6 km/h 20.9 km/h 76 % 0 mm
08:58 14.2 °C 9.8 °C 1022.6 hPa South 9.5 km/h 18.5 km/h 75 % 0 mm
09:03 14.2 °C 10.1 °C 1022.6 hPa South 10.1 km/h 18.5 km/h 76 % 0 mm
09:08 14.4 °C 10.3 °C 1022.6 hPa South 7.9 km/h 14.8 km/h 76 % 0 mm
09:13 14.4 °C 9.7 °C 1022.6 hPa South 16.6 km/h 25.9 km/h 73 % 0 mm
09:18 14.4 °C 9.8 °C 1022.6 hPa South 12.2 km/h 18.5 km/h 74 % 0 mm
09:23 14.8 °C 10.2 °C 1022.6 hPa South 11.9 km/h 14.8 km/h 74 % 0 mm
09:28 15.2 °C 10 °C 1022.6 hPa South 14 km/h 18.5 km/h 71 % 0 mm
09:33 15.2 °C 9.9 °C 1022.6 hPa South 10.9 km/h 18.5 km/h 71 % 0 mm
09:39 14.9 °C 9.2 °C 1022.6 hPa SSW 15.8 km/h 15.8 km/h 69 % 0 mm
09:44 14.8 °C 9.3 °C 1022.6 hPa North 9.5 km/h 18.5 km/h 70 % 0 mm
09:49 15.1 °C 9.7 °C 1022.6 hPa North 8.9 km/h 18.5 km/h 70 % 0 mm
09:54 15.4 °C 9.6 °C 1022.6 hPa SSW 20 km/h 25.9 km/h 68 % 0 mm
09:59 15.4 °C 9.3 °C 1022.6 hPa SSE 12.9 km/h 18.5 km/h 67 % 0 mm
10:04 15.5 °C 9.4 °C 1022.6 hPa SSW 8.9 km/h 18.5 km/h 67 % 0 mm
10:09 15.7 °C 9.6 °C 1022.6 hPa South 13.2 km/h 18.5 km/h 67 % 0 mm
10:14 15.8 °C 9.3 °C 1022.6 hPa South 14.8 km/h 20.9 km/h 65 % 0 mm
10:19 16.1 °C 9.7 °C 1022.6 hPa SSE 14.8 km/h 24.1 km/h 66 % 0 mm
10:24 16.2 °C 9.4 °C 1022.2 hPa South 10.5 km/h 18.5 km/h 64 % 0 mm
10:29 16.4 °C 9.3 °C 1022.6 hPa SSW 13.8 km/h 20.4 km/h 63 % 0 mm
10:34 16.3 °C 9.4 °C 1022.6 hPa South 10.9 km/h 20.9 km/h 64 % 0 mm
10:39 16.3 °C 9.3 °C 1022.6 hPa South 20.3 km/h 24.1 km/h 63 % 0 mm
10:44 16.4 °C 9.6 °C 1022.2 hPa South 10.8 km/h 14.8 km/h 64 % 0 mm
10:49 16.7 °C 9.7 °C 1022.2 hPa South 13.4 km/h 18.5 km/h 63 % 0 mm
10:54 16.8 °C 9.7 °C 1022.2 hPa SSW 18 km/h 24.1 km/h 63 % 0 mm
10:59 16.9 °C 9.6 °C 1022.2 hPa SSE 12.4 km/h 16.7 km/h 62 % 0 mm
11:04 17.1 °C 9.5 °C 1022.2 hPa SSW 21.6 km/h 29.6 km/h 61 % 0 mm
11:09 17 °C 9.4 °C 1022.2 hPa SSW 16.4 km/h 20.4 km/h 61 % 0 mm
11:14 17.1 °C 9.7 °C 1022.2 hPa South 13.4 km/h 18.5 km/h 62 % 0 mm
11:19 17.2 °C 9.4 °C 1022.2 hPa South 18.5 km/h 24.1 km/h 60 % 0 mm
11:24 17.2 °C 9.6 °C 1022.2 hPa South 8 km/h 13 km/h 61 % 0 mm
11:29 17.4 °C 9.6 °C 1022.2 hPa SSE 8.9 km/h 14.5 km/h 60 % 0 mm
11:34 17.8 °C 9.7 °C 1021.9 hPa South 11.6 km/h 20.9 km/h 59 % 0 mm
11:39 17.8 °C 9.7 °C 1021.9 hPa SSW 11.6 km/h 16.7 km/h 59 % 0 mm
11:44 17.8 °C 9.7 °C 1021.9 hPa SSW 13 km/h 18.5 km/h 59 % 0 mm
11:49 17.7 °C 9.6 °C 1021.9 hPa SW 18.3 km/h 27.8 km/h 59 % 0 mm
11:54 17.8 °C 9.4 °C 1021.9 hPa SSW 13.2 km/h 24.1 km/h 58 % 0 mm
11:59 17.9 °C 9.8 °C 1021.9 hPa South 4.8 km/h 9.3 km/h 59 % 0 mm
12:04 18 °C 9.6 °C 1021.9 hPa South 11.6 km/h 20.4 km/h 58 % 0 mm
12:09 18.1 °C 9.7 °C 1021.9 hPa South 8.5 km/h 18.5 km/h 58 % 0 mm
12:14 18.3 °C 9.7 °C 1021.9 hPa SSW 17.2 km/h 29.6 km/h 57 % 0 mm
12:19 18.2 °C 9.8 °C 1021.6 hPa SW 14.5 km/h 24.1 km/h 58 % 0 mm
12:24 18.3 °C 9.6 °C 1021.6 hPa SW 16.1 km/h 22.2 km/h 57 % 0 mm
12:29 18.2 °C 9.5 °C 1021.6 hPa South 14 km/h 20.4 km/h 57 % 0 mm
12:34 18.2 °C 9.2 °C 1021.6 hPa SW 13.2 km/h 16.7 km/h 56 % 0 mm
12:39 18.3 °C 9.1 °C 1021.6 hPa SW 12.9 km/h 18.5 km/h 55 % 0 mm
12:44 18.4 °C 9.2 °C 1021.2 hPa SSW 12.4 km/h 14.5 km/h 55 % 0 mm
12:49 18.7 °C 9.2 °C 1021.2 hPa South 12.4 km/h 18.5 km/h 54 % 0 mm
12:54 18.9 °C 9.7 °C 1021.2 hPa SE 9.3 km/h 13 km/h 55 % 0 mm
12:59 19.3 °C 9.5 °C 1021.2 hPa South 15.9 km/h 18.5 km/h 53 % 0 mm
13:04 19.2 °C 9.4 °C 1021.2 hPa SSW 9 km/h 18.5 km/h 53 % 0 mm
13:09 19.2 °C 9.3 °C 1020.9 hPa South 12.4 km/h 20.4 km/h 53 % 0 mm
13:14 19.2 °C 9.3 °C 1020.9 hPa SSW 13.7 km/h 24.1 km/h 53 % 0 mm
13:19 19.3 °C 9.4 °C 1020.9 hPa SSE 17.9 km/h 19.3 km/h 53 % 0 mm
13:24 19.1 °C 8.9 °C 1020.9 hPa SSW 13 km/h 22.2 km/h 52 % 0 mm
13:29 19.3 °C 9.2 °C 1020.9 hPa SW 19 km/h 22.2 km/h 52 % 0 mm
13:34 19.2 °C 9.1 °C 1020.5 hPa South 8 km/h 13 km/h 52 % 0 mm
13:39 19.5 °C 9.1 °C 1020.5 hPa SSW 16.3 km/h 25.9 km/h 51 % 0 mm
13:44 19.8 °C 9.1 °C 1020.5 hPa South 11.6 km/h 18.5 km/h 50 % 0 mm
13:49 19.6 °C 9.2 °C 1020.5 hPa SSW 9.3 km/h 20.4 km/h 51 % 0 mm
13:54 19.7 °C 9.3 °C 1020.5 hPa South 14.8 km/h 17.7 km/h 51 % 0 mm
13:59 19.7 °C 9.3 °C 1020.5 hPa SSE 12.7 km/h 20.4 km/h 51 % 0 mm
14:04 19.7 °C 9.3 °C 1020.5 hPa South 12.9 km/h 25.9 km/h 51 % 0 mm
14:09 19.8 °C 9.4 °C 1020.5 hPa SSW 13.8 km/h 20.9 km/h 51 % 0 mm
14:14 19.8 °C 9.1 °C 1020.5 hPa SSW 12.4 km/h 14.8 km/h 50 % 0 mm
14:19 19.8 °C 9.1 °C 1020.2 hPa SSE 13.5 km/h 18.5 km/h 50 % 0 mm
14:24 19.9 °C 9.2 °C 1020.2 hPa SSW 12.9 km/h 14.5 km/h 50 % 0 mm
14:29 19.9 °C 8.9 °C 1020.2 hPa SSW 12.2 km/h 20.4 km/h 49 % 0 mm
14:34 20 °C 9.3 °C 1020.2 hPa SSW 11.7 km/h 18.5 km/h 50 % 0 mm
14:39 20.1 °C 9.3 °C 1020.2 hPa South 7.4 km/h 11.3 km/h 50 % 0 mm
14:44 20.2 °C 9.2 °C 1020.2 hPa SSE 8.5 km/h 18.5 km/h 49 % 0 mm
14:49 20.3 °C 8.9 °C 1019.9 hPa SSE 13.8 km/h 18.5 km/h 48 % 0 mm
14:54 20.5 °C 8.8 °C 1019.9 hPa South 15.6 km/h 18.5 km/h 47 % 0 mm
14:59 20.3 °C 8.9 °C 1019.9 hPa South 6.6 km/h 11.3 km/h 48 % 0 mm
15:04 20.7 °C 9 °C 1020.2 hPa SE 11.9 km/h 18.5 km/h 47 % 0 mm
15:09 20.7 °C 9 °C 1020.2 hPa SSW 13.2 km/h 20.9 km/h 47 % 0 mm
15:14 20.6 °C 8.6 °C 1020.2 hPa SSE 9.7 km/h 14.8 km/h 46 % 0 mm
15:19 20.7 °C 9 °C 1019.9 hPa South 11.7 km/h 17.7 km/h 47 % 0 mm
15:24 20.8 °C 8.8 °C 1019.9 hPa SSW 11.7 km/h 18.5 km/h 46 % 0 mm
15:29 20.8 °C 8.4 °C 1019.9 hPa SSW 13.4 km/h 18.5 km/h 45 % 0 mm
15:34 20.8 °C 9.1 °C 1019.9 hPa South 12.7 km/h 20.4 km/h 47 % 0 mm
15:39 20.8 °C 8.7 °C 1019.9 hPa South 13.2 km/h 18.5 km/h 46 % 0 mm
15:44 20.7 °C 9.3 °C 1019.9 hPa South 5.5 km/h 7.4 km/h 48 % 0 mm
15:49 20.7 °C 9.3 °C 1019.9 hPa South 10.1 km/h 14.8 km/h 48 % 0 mm
15:54 20.8 °C 10.3 °C 1019.9 hPa South 8 km/h 17.7 km/h 51 % 0 mm
15:59 20.9 °C 9.8 °C 1019.9 hPa SSW 9.2 km/h 16.7 km/h 49 % 0 mm
16:04 20.8 °C 9.7 °C 1019.9 hPa South 12.4 km/h 18.5 km/h 49 % 0 mm
16:09 20.6 °C 9.5 °C 1019.9 hPa SSW 12.6 km/h 18.5 km/h 49 % 0 mm
16:14 20.4 °C 9.3 °C 1019.5 hPa SSW 9.3 km/h 14.8 km/h 49 % 0 mm
16:19 20.3 °C 9.2 °C 1019.9 hPa SSW 15.8 km/h 18.5 km/h 49 % 0 mm
16:24 20.3 °C 9.2 °C 1019.5 hPa South 8.4 km/h 11.3 km/h 49 % 0 mm
16:29 20.4 °C 9.1 °C 1019.5 hPa SSE 10.3 km/h 14.8 km/h 48 % 0 mm
16:34 20.4 °C 9.1 °C 1019.5 hPa SSE 11.9 km/h 16.7 km/h 48 % 0 mm
16:39 20.4 °C 9 °C 1019.5 hPa South 8.4 km/h 16.7 km/h 48 % 0 mm
16:44 20.4 °C 9 °C 1019.5 hPa SSW 9.3 km/h 16.7 km/h 48 % 0 mm
16:49 20.3 °C 9.2 °C 1019.5 hPa SSW 11.6 km/h 13 km/h 49 % 0 mm
16:54 20.2 °C 8.8 °C 1019.9 hPa South 10.5 km/h 16.7 km/h 48 % 0 mm
16:59 20 °C 8.7 °C 1019.9 hPa SSW 6.3 km/h 14.8 km/h 48 % 0 mm
17:04 20.1 °C 8.7 °C 1019.9 hPa South 8.2 km/h 16.7 km/h 48 % 0 mm
17:09 19.9 °C 8.3 °C 1019.9 hPa South 8.7 km/h 13 km/h 47 % 0 mm
17:14 19.8 °C 8.1 °C 1019.9 hPa SSW 10.5 km/h 16.7 km/h 47 % 0 mm
17:19 19.7 °C 8.7 °C 1019.9 hPa SSE 8.9 km/h 13 km/h 49 % 0 mm
17:24 19.7 °C 8.7 °C 1019.9 hPa SSE 10.5 km/h 16.7 km/h 49 % 0 mm
17:29 19.6 °C 9.2 °C 1019.9 hPa SSE 8 km/h 9.7 km/h 51 % 0 mm
17:34 19.6 °C 9.2 °C 1019.9 hPa SSE 9.7 km/h 13 km/h 51 % 0 mm
17:39 19.5 °C 9.4 °C 1019.9 hPa SSE 6.8 km/h 11.1 km/h 52 % 0 mm
17:44 19.4 °C 9.6 °C 1020.2 hPa SSE 2.4 km/h 5.6 km/h 53 % 0 mm
17:49 19.3 °C 9.4 °C 1020.2 hPa South 9.7 km/h 9.7 km/h 53 % 0 mm
17:54 19.1 °C 9.3 °C 1020.2 hPa South 5.1 km/h 14.8 km/h 53 % 0 mm
17:59 18.9 °C 9.4 °C 1020.2 hPa South 8.5 km/h 13 km/h 54 % 0 mm
18:04 18.6 °C 9.1 °C 1020.2 hPa South 11.1 km/h 11.1 km/h 54 % 0 mm
18:09 18.3 °C 8.8 °C 1020.2 hPa South 8.7 km/h 16.7 km/h 54 % 0 mm
18:11 18.2 °C 9 °C 1020.2 hPa South 9.7 km/h 11.1 km/h 55 % 0 mm
18:16 17.9 °C 8.8 °C 1020.2 hPa South 9.3 km/h 13 km/h 55 % 0 mm
18:21 17.7 °C 8.8 °C 1020.2 hPa South 7.9 km/h 9.3 km/h 56 % 0 mm
18:26 17.5 °C 8.9 °C 1020.5 hPa South 8.9 km/h 11.3 km/h 57 % 0 mm
18:31 17.3 °C 8.9 °C 1020.5 hPa South 8.4 km/h 14.8 km/h 58 % 0 mm
18:36 17.2 °C 8.8 °C 1020.5 hPa South 4.7 km/h 8 km/h 58 % 0 mm
18:41 17 °C 8.9 °C 1020.5 hPa South 6 km/h 9.3 km/h 59 % 0 mm
18:46 16.8 °C 8.8 °C 1020.5 hPa South 6.9 km/h 7.4 km/h 59 % 0 mm
18:51 16.7 °C 8.7 °C 1020.9 hPa South 3.9 km/h 7.4 km/h 59 % 0 mm
18:56 16.6 °C 8.8 °C 1020.9 hPa South 4.3 km/h 7.4 km/h 60 % 0 mm
19:01 16.4 °C 8.7 °C 1020.9 hPa South 5 km/h 8 km/h 60 % 0 mm
19:06 16.2 °C 8.7 °C 1020.9 hPa South 3.5 km/h 7.4 km/h 61 % 0 mm
19:11 16.1 °C 8.6 °C 1020.9 hPa South 4.8 km/h 6.4 km/h 61 % 0 mm
19:16 15.9 °C 8.6 °C 1020.9 hPa South 1.1 km/h 3.7 km/h 62 % 0 mm
19:21 15.7 °C 8.7 °C 1021.2 hPa South 2.9 km/h 5.6 km/h 63 % 0 mm
19:26 15.4 °C 8.7 °C 1021.2 hPa South 5.3 km/h 7.4 km/h 64 % 0 mm
19:31 15.3 °C 8.8 °C 1021.2 hPa South 10.8 km/h 14.8 km/h 65 % 0 mm
19:36 15.2 °C 8.7 °C 1021.6 hPa South 11.4 km/h 18.5 km/h 65 % 0 mm
19:41 15.1 °C 8.7 °C 1021.6 hPa South 7.9 km/h 11.1 km/h 66 % 0 mm
19:46 14.9 °C 8.9 °C 1021.6 hPa South 9.3 km/h 14.8 km/h 67 % 0 mm
19:51 14.8 °C 8.7 °C 1021.6 hPa South 10.1 km/h 16.7 km/h 67 % 0 mm
19:56 14.7 °C 9.1 °C 1021.6 hPa South 7.2 km/h 14.8 km/h 69 % 0 mm
20:01 14.5 °C 8.9 °C 1021.6 hPa South 9 km/h 13 km/h 69 % 0 mm
20:06 14.4 °C 9 °C 1021.9 hPa South 7.2 km/h 11.1 km/h 70 % 0 mm
20:11 14.2 °C 9.1 °C 1021.9 hPa South 5.8 km/h 9.7 km/h 71 % 0 mm
20:16 14.1 °C 9.1 °C 1021.9 hPa South 5.8 km/h 11.1 km/h 72 % 0 mm
20:21 13.9 °C 8.9 °C 1021.9 hPa South 8.7 km/h 14.5 km/h 72 % 0 mm
20:26 13.7 °C 8.9 °C 1021.9 hPa South 5.8 km/h 9.3 km/h 73 % 0 mm
20:31 13.6 °C 9.1 °C 1021.9 hPa South 6.9 km/h 14.8 km/h 74 % 0 mm
20:36 13.5 °C 8.9 °C 1021.9 hPa South 5.3 km/h 12.9 km/h 74 % 0 mm
20:41 13.3 °C 9 °C 1021.9 hPa SSW 10.6 km/h 14.8 km/h 75 % 0 mm
20:46 13.2 °C 9.1 °C 1021.9 hPa South 7.7 km/h 16.7 km/h 76 % 0 mm
20:51 13.1 °C 9.2 °C 1021.9 hPa South 10.9 km/h 14.8 km/h 77 % 0 mm
20:56 12.9 °C 9.2 °C 1021.9 hPa South 6.6 km/h 12.9 km/h 78 % 0 mm
21:01 12.8 °C 9.3 °C 1022.2 hPa South 8 km/h 14.8 km/h 79 % 0 mm
21:06 12.7 °C 9.2 °C 1022.2 hPa South 7.6 km/h 13 km/h 79 % 0 mm
21:11 12.6 °C 9.2 °C 1022.2 hPa South 9.3 km/h 13 km/h 80 % 0 mm
21:16 12.4 °C 9.1 °C 1022.2 hPa South 6.3 km/h 13 km/h 80 % 0 mm
21:21 12.3 °C 9.2 °C 1021.9 hPa South 7.7 km/h 14.8 km/h 81 % 0 mm
21:26 12.2 °C 9 °C 1022.2 hPa South 7.4 km/h 9.3 km/h 81 % 0 mm
21:31 12.1 °C 9.1 °C 1022.2 hPa South 7.1 km/h 13 km/h 82 % 0 mm
21:36 11.9 °C 8.9 °C 1022.2 hPa South 6.4 km/h 11.3 km/h 82 % 0 mm
21:41 11.8 °C 9 °C 1022.2 hPa North 8.5 km/h 14.8 km/h 83 % 0 mm
21:46 11.7 °C 8.9 °C 1022.2 hPa South 7.1 km/h 11.1 km/h 83 % 0 mm
21:51 11.6 °C 9 °C 1021.9 hPa South 8.7 km/h 13 km/h 84 % 0 mm
21:56 11.5 °C 8.9 °C 1021.9 hPa South 7.7 km/h 11.1 km/h 84 % 0 mm
22:01 11.4 °C 8.8 °C 1021.9 hPa South 6.6 km/h 9.7 km/h 84 % 0 mm
22:06 11.3 °C 8.9 °C 1021.9 hPa South 11.1 km/h 16.7 km/h 85 % 0 mm
22:11 11.3 °C 8.8 °C 1021.9 hPa South 4.7 km/h 7.4 km/h 85 % 0 mm
22:16 11.2 °C 8.8 °C 1021.9 hPa South 8.2 km/h 11.3 km/h 85 % 0 mm
22:21 11.2 °C 8.9 °C 1021.9 hPa South 9.3 km/h 13 km/h 86 % 0 mm
22:26 11.1 °C 8.8 °C 1021.9 hPa South 9.3 km/h 14.8 km/h 86 % 0 mm
22:31 11 °C 8.7 °C 1021.9 hPa South 9.2 km/h 14.8 km/h 86 % 0 mm
22:36 10.9 °C 8.6 °C 1021.6 hPa South 8 km/h 11.1 km/h 86 % 0 mm
22:41 10.8 °C 8.6 °C 1021.6 hPa North 5.1 km/h 7.4 km/h 86 % 0 mm
22:46 10.8 °C 8.7 °C 1021.6 hPa South 5 km/h 11.1 km/h 87 % 0 mm
22:51 10.7 °C 8.7 °C 1021.6 hPa South 9.2 km/h 14.8 km/h 87 % 0 mm
22:56 10.7 °C 8.6 °C 1021.6 hPa South 8.7 km/h 14.8 km/h 87 % 0 mm
23:01 10.6 °C 8.6 °C 1021.6 hPa South 9.7 km/h 16.7 km/h 87 % 0 mm
23:06 10.5 °C 8.4 °C 1021.6 hPa South 5.8 km/h 9.3 km/h 87 % 0 mm
23:11 10.4 °C 8.6 °C 1021.6 hPa South 6.6 km/h 9.3 km/h 88 % 0 mm
23:16 10.4 °C 8.5 °C 1021.6 hPa South 6.1 km/h 9.3 km/h 88 % 0 mm
23:21 10.3 °C 8.4 °C 1021.6 hPa South 5.8 km/h 9.7 km/h 88 % 0 mm
23:26 10.2 °C 8.3 °C 1021.6 hPa South 6.8 km/h 11.1 km/h 88 % 0 mm
23:31 10.2 °C 8.4 °C 1021.6 hPa South 7.1 km/h 9.7 km/h 89 % 0 mm
23:36 10.1 °C 8.4 °C 1021.6 hPa South 2.6 km/h 9.3 km/h 89 % 0 mm
23:41 10 °C 8.3 °C 1021.6 hPa North 3.5 km/h 5.6 km/h 89 % 0 mm
23:46 9.9 °C 8.2 °C 1021.2 hPa South 4.5 km/h 5.6 km/h 89 % 0 mm
23:51 9.8 °C 8.1 °C 1021.2 hPa South 2.6 km/h 5.6 km/h 89 % 0 mm
23:56 9.7 °C 7.9 °C 1021.2 hPa North 6.6 km/h 8 km/h 89 % 0 mm
Ararat Weather
Compliments of Weather Underground - 2.25 mb
Click here to send mail.


ABOUT

Live weather data from Ararat, Victoria, Australia, 3377
Data uploaded from Cumulus every 5 minutes to Weather Underground.
This site then downloads the raw data for formatting and display.
Metric and imperial data can be displayed. Graphs and historical data available.
Includes Sun and Moon times and rain image live from BOM.

Check out Ararat Weather on Facebook, Twitter and Google +

Help support ongoing costs by checking out the ads





Follow @AraratWeather